createdAt,value
2023-05-06T00:02:48.073Z,75.35
2023-05-06T00:05:50.272Z,77.35
2023-05-06T00:08:54.252Z,101.50
2023-05-06T00:11:55.988Z,85.22
2023-05-06T00:14:57.600Z,98.65
2023-05-06T00:17:59.569Z,81.47
2023-05-06T00:21:01.271Z,69.20
2023-05-06T00:24:02.981Z,77.43
2023-05-06T00:27:04.568Z,69.28
2023-05-06T00:30:06.801Z,76.07
2023-05-06T00:33:08.500Z,78.38
2023-05-06T00:36:10.345Z,88.00
2023-05-06T00:39:11.994Z,65.18
2023-05-06T00:42:13.652Z,62.28
2023-05-06T00:45:15.315Z,62.28
2023-05-06T00:48:19.325Z,71.22
2023-05-06T00:51:21.068Z,75.63
2023-05-06T00:54:25.160Z,77.95
2023-05-06T00:57:27.341Z,69.90
2023-05-06T01:00:29.190Z,73.25
2023-05-06T01:03:32.793Z,71.20
2023-05-06T01:06:53.207Z,50.50
2023-05-06T01:10:13.569Z,71.70
2023-05-06T01:13:30.255Z,72.72
2023-05-06T01:16:36.330Z,69.15
2023-05-06T01:19:50.771Z,78.70
2023-05-06T01:22:53.422Z,79.05
2023-05-06T01:25:55.085Z,75.40
2023-05-06T01:28:58.526Z,74.97
2023-05-06T01:32:21.570Z,76.75
2023-05-06T01:35:35.774Z,97.95
2023-05-06T01:38:51.666Z,68.60
2023-05-06T01:41:55.799Z,62.20
2023-05-06T01:45:01.451Z,76.78
2023-05-06T01:48:03.882Z,71.00
2023-05-06T01:51:05.663Z,75.40
2023-05-06T01:54:07.285Z,74.85
2023-05-06T01:57:08.842Z,87.30
2023-05-06T02:00:11.098Z,68.35
2023-05-06T02:03:12.717Z,83.07
2023-05-06T02:06:14.354Z,83.03
2023-05-06T02:09:15.972Z,91.40
2023-05-06T02:12:17.572Z,87.78
2023-05-06T02:15:19.264Z,90.90
2023-05-06T02:18:20.840Z,85.03
2023-05-06T02:21:23.266Z,71.68
2023-05-06T02:24:28.000Z,96.20
2023-05-06T02:27:29.852Z,89.70
2023-05-06T02:30:33.040Z,70.15
2023-05-06T02:33:34.682Z,73.55
2023-05-06T02:36:36.351Z,81.00
2023-05-06T02:39:38.135Z,97.97
2023-05-06T02:42:39.861Z,79.32
2023-05-06T02:45:41.467Z,89.35
2023-05-06T02:48:43.246Z,96.60
2023-05-06T02:51:44.895Z,91.15
2023-05-06T02:54:46.488Z,96.22
2023-05-06T02:57:48.146Z,86.68
2023-05-06T03:32:36.741Z,78.05
2023-05-06T04:25:32.700Z,64.97
2023-05-06T05:19:48.065Z,78.57
2023-05-06T05:32:01.031Z,61.97
2023-05-06T05:35:51.468Z,70.55
2023-05-06T05:39:51.174Z,63.35
2023-05-06T05:55:44.002Z,62.42
2023-05-06T06:16:17.807Z,55.03
2023-05-06T06:22:47.431Z,41.15
2023-05-06T06:25:48.983Z,42.30
2023-05-06T06:28:50.556Z,32.60
2023-05-06T06:31:52.169Z,40.28
2023-05-06T06:34:53.755Z,37.35
2023-05-06T06:37:56.284Z,36.05
2023-05-06T06:40:57.864Z,25.33
2023-05-06T06:43:59.451Z,29.20
2023-05-06T06:47:01.193Z,31.58
2023-05-06T06:50:03.015Z,29.30
2023-05-06T06:53:06.275Z,29.25
2023-05-06T06:56:11.764Z,20.23
2023-05-06T06:59:13.613Z,20.08
2023-05-06T07:02:15.188Z,18.85
2023-05-06T07:05:20.305Z,25.48
2023-05-06T07:08:22.376Z,23.10
2023-05-06T07:11:24.046Z,22.88
2023-05-06T07:14:26.016Z,23.30
2023-05-06T07:17:27.564Z,17.38
2023-05-06T07:20:29.264Z,14.75
2023-05-06T07:23:32.201Z,21.20
2023-05-06T07:26:37.712Z,20.25
2023-05-06T07:29:39.377Z,21.02
2023-05-06T07:32:41.290Z,15.23
2023-05-06T07:35:42.993Z,14.68
2023-05-06T07:38:45.172Z,22.48
2023-05-06T07:41:46.754Z,18.73
2023-05-06T07:44:48.309Z,16.17
2023-05-06T07:47:50.142Z,15.18
2023-05-06T07:50:51.789Z,19.40
2023-05-06T07:53:53.416Z,14.52
2023-05-06T07:56:55.012Z,13.57
2023-05-06T07:59:58.328Z,12.88
2023-05-06T08:03:00.172Z,11.10
2023-05-06T08:06:01.845Z,12.80
2023-05-06T08:09:03.967Z,14.30
2023-05-06T08:12:06.025Z,14.15
2023-05-06T08:15:08.413Z,10.32
2023-05-06T08:18:21.889Z,14.13
2023-05-06T08:21:24.758Z,12.63
2023-05-06T08:24:26.790Z,10.18
2023-05-06T08:27:28.459Z,11.43
2023-05-06T08:30:30.231Z,11.90
2023-05-06T08:33:32.064Z,9.48
2023-05-06T08:36:33.713Z,11.10
2023-05-06T08:39:35.273Z,7.55
2023-05-06T08:42:38.690Z,15.48
2023-05-06T08:45:41.719Z,10.45
2023-05-06T08:48:43.498Z,6.75
2023-05-06T08:51:46.036Z,18.63
2023-05-06T08:54:50.218Z,9.85
2023-05-06T08:57:53.180Z,6.28
2023-05-06T09:00:56.945Z,7.10
2023-05-06T09:03:59.554Z,19.73
2023-05-06T09:07:01.159Z,7.13
2023-05-06T09:10:12.088Z,8.85
2023-05-06T09:13:15.697Z,6.85
2023-05-06T09:16:30.562Z,6.22
2023-05-06T09:19:32.374Z,5.00
2023-05-06T09:22:34.043Z,3.55
2023-05-06T09:25:36.863Z,3.97
2023-05-06T09:28:38.908Z,3.80
2023-05-06T09:31:45.504Z,4.20
2023-05-06T09:34:49.125Z,5.05
2023-05-06T09:37:51.681Z,4.95
2023-05-06T09:40:53.286Z,10.02
2023-05-06T09:43:56.374Z,4.78
2023-05-06T09:46:58.142Z,8.75
2023-05-06T09:50:01.799Z,3.13
2023-05-06T09:53:04.910Z,3.83
2023-05-06T09:56:07.963Z,3.90
2023-05-06T09:59:11.019Z,3.55
2023-05-06T10:02:15.706Z,3.63
2023-05-06T10:05:17.987Z,9.05
2023-05-06T10:08:22.138Z,6.43
2023-05-06T10:11:25.056Z,2.97
2023-05-06T10:14:26.768Z,4.68
2023-05-06T10:17:29.929Z,6.75
2023-05-06T10:20:33.969Z,4.30
2023-05-06T10:23:44.783Z,4.72
2023-05-06T10:26:46.734Z,5.00
2023-05-06T10:29:49.022Z,4.97
2023-05-06T10:32:54.204Z,2.40
2023-05-06T10:36:04.446Z,5.55
2023-05-06T10:39:10.038Z,3.33
2023-05-06T10:42:11.966Z,3.33
2023-05-06T10:45:15.206Z,2.20
2023-05-06T10:48:17.215Z,3.38
2023-05-06T10:51:19.623Z,5.15
2023-05-06T10:54:21.234Z,4.30
2023-05-06T10:57:27.998Z,2.72
2023-05-06T11:00:33.994Z,1.77
2023-05-06T11:03:36.730Z,6.72
2023-05-06T11:06:54.233Z,5.38
2023-05-06T11:10:07.867Z,5.60
2023-05-06T11:13:18.984Z,5.50
2023-05-06T11:16:52.703Z,4.30
2023-05-06T11:20:18.273Z,2.88
2023-05-06T11:23:19.846Z,3.10
2023-05-06T11:26:21.416Z,4.40
2023-05-06T11:29:23.748Z,4.40
2023-05-06T11:32:28.427Z,2.72
2023-05-06T11:35:35.763Z,2.75
2023-05-06T11:38:56.333Z,5.60
2023-05-06T11:42:06.613Z,4.20
2023-05-06T11:45:08.866Z,2.85
2023-05-06T11:48:14.804Z,6.70
2023-05-06T11:51:21.470Z,2.13
2023-05-06T11:54:25.020Z,2.42
2023-05-06T11:57:26.601Z,2.08
2023-05-06T12:00:28.206Z,3.58
2023-05-06T12:03:31.724Z,4.07
2023-05-06T12:06:37.621Z,4.75
2023-05-06T12:09:45.691Z,4.55
2023-05-06T12:12:47.511Z,4.68
2023-05-06T12:15:52.292Z,3.83
2023-05-06T12:18:54.781Z,3.55
2023-05-06T12:21:57.172Z,3.35
2023-05-06T12:24:58.887Z,3.63
2023-05-06T12:28:00.719Z,2.28
2023-05-06T12:31:18.870Z,3.78
2023-05-06T12:34:39.972Z,6.32
2023-05-06T12:37:41.833Z,3.03
2023-05-06T12:40:52.315Z,8.70
2023-05-06T12:43:53.947Z,7.82
2023-05-06T12:46:55.992Z,3.08
2023-05-06T12:49:58.999Z,2.13
2023-05-06T12:53:01.509Z,1.95
2023-05-06T12:56:03.216Z,5.63
2023-05-06T12:59:04.818Z,4.25
2023-05-06T13:02:06.799Z,2.88
2023-05-06T13:05:08.742Z,4.68
2023-05-06T13:08:10.863Z,4.75
2023-05-06T13:11:12.529Z,5.50
2023-05-06T13:14:14.128Z,4.15
2023-05-06T13:17:15.835Z,2.58
2023-05-06T13:20:18.406Z,7.55
2023-05-06T13:23:20.015Z,7.68
2023-05-06T13:26:21.684Z,5.75
2023-05-06T13:29:23.743Z,3.67
2023-05-06T13:32:25.620Z,5.18
2023-05-06T13:35:27.253Z,5.65
2023-05-06T13:38:29.144Z,4.45
2023-05-06T13:41:30.807Z,2.72
2023-05-06T13:44:32.933Z,4.35
2023-05-06T13:47:34.540Z,4.60
2023-05-06T13:50:37.055Z,3.58
2023-05-06T13:53:39.393Z,4.38
2023-05-06T13:56:41.307Z,4.75
2023-05-06T13:59:42.835Z,4.18
2023-05-06T14:02:44.855Z,6.75
2023-05-06T14:05:46.486Z,5.63
2023-05-06T14:08:48.093Z,3.85
2023-05-06T14:11:49.746Z,4.35
2023-05-06T14:14:51.331Z,4.93
2023-05-06T14:17:52.994Z,4.03
2023-05-06T14:20:54.886Z,2.95
2023-05-06T14:23:56.407Z,5.72
2023-05-06T14:26:58.066Z,6.75
2023-05-06T14:29:59.645Z,6.53
2023-05-06T14:33:01.283Z,2.72
2023-05-06T14:36:03.392Z,3.10
2023-05-06T14:39:04.982Z,3.67
2023-05-06T14:42:06.595Z,3.25
2023-05-06T14:45:08.901Z,3.30
2023-05-06T14:48:10.581Z,3.25
2023-05-06T14:51:14.888Z,2.97
2023-05-06T14:54:17.346Z,3.88
2023-05-06T14:57:18.915Z,4.55
2023-05-06T15:00:20.523Z,5.93
2023-05-06T15:03:22.112Z,8.98
2023-05-06T15:06:23.754Z,5.85
2023-05-06T15:09:26.162Z,5.25
2023-05-06T15:12:28.356Z,4.30
2023-05-06T15:15:29.983Z,6.85
2023-05-06T15:18:31.662Z,3.58
2023-05-06T15:21:33.342Z,4.90
2023-05-06T15:24:35.697Z,6.18
2023-05-06T15:27:37.346Z,3.67
2023-05-06T15:30:39.205Z,6.75
2023-05-06T15:33:41.384Z,4.75
2023-05-06T15:36:42.939Z,7.28
2023-05-06T15:39:44.496Z,3.70
2023-05-06T15:42:46.046Z,7.00
2023-05-06T15:45:47.805Z,5.15
2023-05-06T15:48:54.437Z,4.88
2023-05-06T15:52:11.039Z,4.38
2023-05-06T15:55:13.518Z,6.15
2023-05-06T15:58:15.469Z,4.75
2023-05-06T16:01:20.803Z,2.90
2023-05-06T16:04:27.776Z,12.30
2023-05-06T16:07:29.962Z,5.20
2023-05-06T16:10:31.720Z,6.40
2023-05-06T16:13:34.298Z,10.23
2023-05-06T16:16:36.043Z,4.20
2023-05-06T16:19:37.691Z,4.90
2023-05-06T16:22:40.150Z,3.20
2023-05-06T16:25:42.473Z,2.45
2023-05-06T16:28:44.057Z,6.10
2023-05-06T16:31:45.874Z,2.72
2023-05-06T16:34:47.480Z,6.82
2023-05-06T16:37:49.098Z,4.60
2023-05-06T16:40:51.156Z,4.80
2023-05-06T16:43:52.778Z,8.45
2023-05-06T16:46:54.369Z,5.70
2023-05-06T16:49:55.995Z,5.38
2023-05-06T16:52:58.021Z,2.85
2023-05-06T16:56:01.642Z,4.68
2023-05-06T16:59:04.194Z,3.78
2023-05-06T17:02:05.788Z,4.07
2023-05-06T17:05:07.754Z,5.35
2023-05-06T17:08:10.433Z,3.25
2023-05-06T17:11:12.495Z,4.18
2023-05-06T17:14:14.115Z,2.70
2023-05-06T17:17:15.952Z,2.53
2023-05-06T17:20:19.830Z,2.05
2023-05-06T17:23:21.692Z,4.25
2023-05-06T17:26:23.281Z,3.72
2023-05-06T17:29:24.833Z,3.50
2023-05-06T17:32:26.746Z,10.20
2023-05-06T17:35:28.355Z,3.05
2023-05-06T17:38:29.891Z,4.70
2023-05-06T17:41:31.840Z,2.50
2023-05-06T17:44:35.175Z,2.85
2023-05-06T17:47:36.805Z,4.57
2023-05-06T17:50:39.532Z,5.70
2023-05-06T17:53:41.460Z,3.85
2023-05-06T17:56:49.008Z,3.33
2023-05-06T17:59:50.637Z,5.78
2023-05-06T18:02:52.361Z,3.08
2023-05-06T18:05:54.037Z,2.80
2023-05-06T18:08:55.720Z,4.68
2023-05-06T18:11:57.282Z,5.55
2023-05-06T18:14:58.817Z,6.97
2023-05-06T18:18:00.400Z,3.63
2023-05-06T18:21:02.011Z,5.47
2023-05-06T18:24:15.489Z,3.95
2023-05-06T18:27:18.219Z,3.58
2023-05-06T18:30:19.838Z,5.78
2023-05-06T18:33:21.606Z,6.13
2023-05-06T18:36:23.241Z,5.07
2023-05-06T18:39:24.812Z,5.57
2023-05-06T18:42:27.498Z,3.83
2023-05-06T18:45:29.460Z,5.82
2023-05-06T18:48:32.449Z,3.33
2023-05-06T18:51:34.114Z,3.45
2023-05-06T18:54:35.827Z,6.60
2023-05-06T18:57:37.941Z,6.82
2023-05-06T19:00:39.512Z,5.55
2023-05-06T19:03:41.755Z,5.28
2023-05-06T19:06:43.514Z,7.65
2023-05-06T19:09:45.561Z,4.60
2023-05-06T19:12:47.245Z,4.20
2023-05-06T19:15:48.885Z,3.67
2023-05-06T19:18:50.577Z,8.73
2023-05-06T19:21:52.218Z,6.32
2023-05-06T19:24:53.774Z,7.93
2023-05-06T19:27:55.357Z,5.05
2023-05-06T19:30:56.919Z,5.15
2023-05-06T19:33:58.503Z,4.47
2023-05-06T19:37:00.060Z,5.93
2023-05-06T19:40:02.752Z,5.00
2023-05-06T19:43:04.686Z,4.35
2023-05-06T19:46:06.497Z,7.18
2023-05-06T19:49:10.956Z,4.88
2023-05-06T19:52:12.512Z,7.43
2023-05-06T19:55:14.171Z,6.68
2023-05-06T19:58:17.075Z,7.35
2023-05-06T20:01:22.378Z,5.88
2023-05-06T20:04:24.061Z,4.63
2023-05-06T20:07:25.764Z,6.18
2023-05-06T20:10:28.291Z,6.30
2023-05-06T20:13:29.991Z,7.35
2023-05-06T20:16:31.663Z,8.55
2023-05-06T20:19:33.270Z,4.95
2023-05-06T20:22:36.492Z,11.55
2023-05-06T20:25:41.353Z,13.55
2023-05-06T20:28:45.205Z,7.90
2023-05-06T20:31:47.485Z,10.27
2023-05-06T20:34:50.145Z,8.48
2023-05-06T20:37:54.758Z,7.90
2023-05-06T20:40:58.577Z,6.75
2023-05-06T20:44:00.125Z,7.78
2023-05-06T20:47:02.096Z,5.40
2023-05-06T20:50:03.937Z,7.28
2023-05-06T20:53:05.725Z,8.55
2023-05-06T20:56:18.380Z,9.60
2023-05-06T20:59:20.213Z,10.88
2023-05-06T21:02:21.819Z,10.98
2023-05-06T21:05:23.712Z,8.02
2023-05-06T21:08:25.537Z,10.32
2023-05-06T21:11:28.860Z,10.85
2023-05-06T21:14:30.639Z,10.13
2023-05-06T21:17:32.367Z,8.85
2023-05-06T21:20:34.079Z,10.60
2023-05-06T21:23:35.666Z,9.35
2023-05-06T21:26:38.762Z,8.45
2023-05-06T21:29:40.392Z,8.02
2023-05-06T21:32:42.058Z,7.90
2023-05-06T21:35:43.643Z,9.13
2023-05-06T21:38:47.040Z,9.80
2023-05-06T21:41:48.681Z,10.98
2023-05-06T21:44:50.692Z,7.13
2023-05-06T21:47:52.293Z,9.45
2023-05-06T21:50:57.877Z,11.27
2023-05-06T21:53:59.611Z,7.75
2023-05-06T21:57:01.215Z,8.55
2023-05-06T22:00:08.500Z,9.27
2023-05-06T22:03:13.372Z,11.23
2023-05-06T22:06:15.575Z,8.73
2023-05-06T22:09:17.166Z,13.13
2023-05-06T22:12:18.717Z,11.35
2023-05-06T22:15:44.125Z,9.68
2023-05-06T22:18:45.790Z,9.70
2023-05-06T22:21:47.478Z,9.05
2023-05-06T22:24:49.362Z,13.07
2023-05-06T22:27:51.067Z,11.32
2023-05-06T22:30:52.640Z,9.32
2023-05-06T22:33:57.530Z,12.00
2023-05-06T22:37:00.472Z,10.13
2023-05-06T22:40:02.816Z,8.98
2023-05-06T22:43:04.519Z,8.05
2023-05-06T22:46:06.313Z,7.72
2023-05-06T22:49:08.119Z,7.30
2023-05-06T22:52:09.745Z,7.85
2023-05-06T22:55:11.524Z,5.32
2023-05-06T22:58:13.506Z,10.73
2023-05-06T23:01:15.115Z,8.25
2023-05-06T23:04:16.839Z,7.10
2023-05-06T23:07:18.420Z,6.28
2023-05-06T23:10:20.138Z,8.48
2023-05-06T23:13:21.859Z,5.28
2023-05-06T23:16:23.613Z,6.65
2023-05-06T23:19:25.917Z,9.23
2023-05-06T23:22:27.633Z,6.75
2023-05-06T23:25:29.205Z,10.10
2023-05-06T23:28:30.785Z,8.27
2023-05-06T23:31:32.432Z,6.35
2023-05-06T23:34:34.084Z,6.80
2023-05-06T23:37:35.683Z,9.55
2023-05-06T23:40:37.423Z,9.43
2023-05-06T23:43:39.210Z,10.20
2023-05-06T23:46:40.835Z,8.23
2023-05-06T23:49:42.494Z,10.10
2023-05-06T23:52:44.162Z,9.82
2023-05-06T23:55:45.830Z,8.18
2023-05-06T23:58:47.403Z,12.18
